Alejandro Ferreyra

Scout - Boca Juniors
3 Dez 2028
Sonntag
Verarbeitung

Persönlichkeit

Anpassungsfähigkeit (14) Ehrgeiz (14) Kontroverse (19) Loyalität (7) Druck (15) Professionalität (1) Fairness (16) Temperament (14)

Profil

Trainerstil Demokratisch
Lizenz Kontinentale Pro
Entschlossenheit 13
Menschenführung 7
Motivation 11
Disziplin 12
Arbeitszufriedenheit
35%
Ermüdung
0%
Rolle Scout
Gehalt 35.0K p/W
Vertrag 14.03.2030

Leistung

Verhalten Gut
Trainingseffektivität
22%
Spielerentwicklung
60%
Verletzungsprävention
50%
Taktische Umsetzung
70%

Letzte Ereignisse

Empfahl ein Transferziel jetzt
Empfahl ein Transferziel jetzt
Empfahl ein Transferziel jetzt
Nahm an einer Scouting-Besprechung teil jetzt
Empfahl ein Transferziel jetzt
Spieler begutachtet jetzt
Spieler begutachtet jetzt
Legte dem Vorstand ein Dossier vor jetzt

Aktuell beobachtet

189
Spieler Verein Status Fähigkeit Vertrauen Beobachtet Zuletzt beobachtet Letzte Stimme
Georginio Rutter Brighton Aktiv 153 / 161 40% 2 02.12.2028 -
Morgan Rogers Chelsea Aktiv 163 / 171 40% 1 02.12.2028 -
Tino Livramento Newcastle United Aktiv 158 / 163 40% 5 30.11.2028 -
Iliman N'Diaye Everton Aktiv 155 / 155 40% 3 30.11.2028 -
Ez Abde Betis Aktiv 171 / 152 40% 1 30.11.2028 -
Sven Botman Newcastle United Aktiv 163 / 167 40% 1 30.11.2028 -
Lisandro Piñero Banfield Aktiv 118 / 131 62% 1 02.06.2028 Befürworten
Sebastiano Esposito Cagliari Aktiv 160 / 139 40% 2 01.06.2028 -
Leonel Jaime River Plate Aktiv 114 / 123 62% 1 01.06.2028 -
Gabriel Martinelli Arsenal Aktiv 158 / 161 40% 4 30.05.2028 -
Mark Travers Leicester City Aktiv 145 / 151 40% 8 30.05.2028 -
Lautaro Morales Lanús Aktiv 144 / 133 40% 2 30.05.2028 -
Kostantis Tzolakis Brighton Aktiv 153 / 149 40% 7 29.05.2028 -
Sol Brynn Bradford City Aktiv 140 / 140 40% 1 29.05.2028 -
João Pedro Chelsea Aktiv 146 / 151 40% 5 28.05.2028 -
Hugo Ekitiké Liverpool Aktiv 164 / 165 40% 4 26.05.2028 -
Benjamin Šeško Manchester United Aktiv 170 / 158 40% 2 25.05.2028 -
Giorgi Mamardashvili Liverpool Aktiv 169 / 162 40% 12 23.05.2028 -
Radek Vítek Middlesbrough Aktiv 157 / 155 40% 13 23.05.2028 -
Mads Hermansen West Ham United Aktiv 151 / 144 40% 9 22.05.2028 -
Jonas Urbig Bayern Munich Aktiv 165 / 164 40% 7 21.05.2028 -
Guilherme Fernandes Valencia Aktiv 136 / 135 40% 1 21.05.2028 -
Daniel Peretz Wolverhampton Aktiv 144 / 149 40% 7 20.05.2028 -
Franco Israel Hellas Verona Aktiv 151 / 136 40% 2 20.05.2028 -
Charles De Ketelaere Tottenham Aktiv 164 / 159 40% 2 19.05.2028 -
Christian Pulisic AC Milan Aktiv 164 / 158 40% 7 18.05.2028 -
James Trafford Leeds United Aktiv 144 / 155 40% 12 17.05.2028 -
Caoimhin Kelleher Brentford Aktiv 170 / 155 40% 8 17.05.2028 -
Gianluigi Donnarumma AS Roma Verhandlung 162 / 170 40% 9 15.05.2028 -
Joseph Leclercq Tottenham Aktiv 155 / 156 40% 5 10.05.2028 -
Bart Verbruggen Liverpool Aktiv 174 / 164 40% 6 10.05.2028 -
Bryan Mbeumo Manchester United Aktiv 151 / 161 40% 2 09.05.2028 -
Ismaïla Sarr Crystal Palace Aktiv 166 / 153 40% 3 09.05.2028 -
Antonín Kinský Tottenham Aktiv 140 / 160 40% 6 06.05.2028 -
Mile Svilar AS Roma Aktiv 173 / 172 40% 25 04.05.2028 -
Nicolas Jackson Aston Villa Aktiv 167 / 149 40% 4 03.05.2028 -
Nicolás González Juventus Aktiv 161 / 154 40% 2 02.05.2028 -
Viktor Gyökeres Arsenal Aktiv 172 / 167 40% 3 02.05.2028 -
Aaron Ramsdale Southampton Aktiv 166 / 147 40% 4 29.04.2028 -
Carl Rushworth Aston Villa Aktiv 146 / 151 40% 5 26.04.2028 -
Christos Mandas Lazio Aktiv 138 / 147 40% 17 24.04.2028 -
Lukáš Horníček Burnley Aktiv 154 / 151 40% 9 23.04.2028 -
Jakub Stolarczyk Middlesbrough Aktiv 153 / 147 40% 9 21.04.2028 -
Zion Suzuki Aston Villa Aktiv 147 / 153 40% 7 18.04.2028 -
Thiago Brentford Aktiv 166 / 151 40% 3 17.04.2028 -
Senne Lammens Manchester United Aktiv 173 / 168 40% 5 08.04.2028 -
Elia Caprile Cagliari Aktiv 147 / 158 40% 22 07.04.2028 -
Robin Roefs Sunderland Aktiv 147 / 149 40% 10 23.03.2028 -
Tammy Abraham Aston Villa Aktiv 137 / 153 40% 1 17.03.2028 -
Taiwo Awoniyi Middlesbrough Aktiv 153 / 135 40% 1 17.03.2028 -
Altay Bayındır Manchester United Aktiv 153 / 136 40% 2 13.03.2028 -
Matheus Cunha Manchester United Aktiv 169 / 154 40% 1 07.03.2028 -
Bradley Barcola Liverpool Aktiv 177 / 171 40% 4 04.03.2028 -
Melker Ellborg Sunderland Aktiv 123 / 142 40% 1 22.02.2028 -
Dylan Moody Cheltenham Town Aktiv 103 / 122 40% 1 19.02.2028 -
Dwight McNeil Crystal Palace Aktiv 146 / 147 40% 1 14.02.2028 -
Hákon Rafn Valdimarsson Southampton Aktiv 151 / 152 40% 2 10.02.2028 -
Federico Ravaglia Bologna Aktiv 131 / 135 40% 3 08.02.2028 -
Lucas Chevalier AC Milan Aktiv 164 / 171 40% 15 02.02.2028 -
Josh Keeley Luton Town Aktiv 126 / 140 40% 2 29.01.2028 -
Illan Meslier Crystal Palace Aktiv 148 / 140 40% 1 28.01.2028 -
Fábio Carvalho Brentford Aktiv 136 / 144 40% 1 19.01.2028 -
Emanuel Emegha Chelsea Aktiv 149 / 144 40% 1 15.01.2028 -
Anthony Patterson Wrexham Aktiv 129 / 135 40% 2 03.01.2028 -
Sam Proctor Salford City Aktiv 118 / 119 40% 1 25.12.2027 -
Oliver Dovin Coventry City Aktiv 127 / 145 40% 2 19.12.2027 -
Ander Astralaga Newcastle United Aktiv 128 / 134 40% 1 13.12.2027 -
Alex Verón Vélez Aktiv 120 / 121 62% 1 01.12.2027 Befürworten
Kevin Schade Chelsea Aktiv 146 / 154 40% 1 30.11.2027 -
Quilindschy Hartman Burnley Aktiv 138 / 148 40% 1 22.11.2027 -
Jan Paul van Hecke Tottenham Aktiv 156 / 155 40% 1 22.11.2027 -
Jake O'Brien Everton Aktiv 155 / 156 40% 2 20.11.2027 -
Sandro Tonali Tottenham Aktiv 170 / 179 40% 1 20.11.2027 -
Angeliño AS Roma Aktiv 145 / 154 40% 2 14.11.2027 -
Adam Wharton Crystal Palace Aktiv 150 / 163 40% 5 13.11.2027 -
Brandon Austin Brighton Aktiv 127 / 139 40% 1 09.11.2027 -
Martín Zubimendi Arsenal Aktiv 182 / 162 40% 1 07.11.2027 -
William Saliba Arsenal Aktiv 174 / 172 40% 1 07.11.2027 -
Alexis Mac Allister Liverpool Aktiv 165 / 162 40% 2 03.11.2027 -
Justin Bijlow Atalanta Aktiv 138 / 149 40% 5 29.10.2027 -
Josep Martínez Inter Aktiv 149 / 141 40% 12 24.10.2027 -
Roger Ibañez Al-Ahli Aktiv 154 / 150 40% 3 20.10.2027 -
Evan N'Dicka AS Roma Aktiv 160 / 160 40% 2 20.10.2027 -
Gustavo Mantuan Zenit Aktiv 139 / 128 40% 1 19.10.2027 -
Gedson Fernandes Spartak Moscow Aktiv 142 / 136 40% 1 12.10.2027 -
Wendel Zenit Aktiv 160 / 138 40% 1 09.10.2027 -
Khéphren Thuram Juventus Aktiv 159 / 163 40% 3 04.10.2027 -
Matěj Kovář TSG Hoffenheim Aktiv 129 / 138 40% 1 04.10.2027 -
Tim Iroegbunam Peterborough United Aktiv 130 / 141 40% 1 28.09.2027 -
Rico Henry River Plate Aktiv 141 / 138 40% 1 12.09.2027 -
Mirza Ćatović VfB Stuttgart Aktiv 129 / 132 40% 1 10.09.2027 -
Matias Siltanen Malmo FF Aktiv 110 / 125 40% 1 10.09.2027 -
Eliás Montiel Borussia Dortmund Aktiv 144 / 134 40% 1 09.09.2027 -
Luka Vušković Tottenham Aktiv 157 / 147 40% 1 08.09.2027 -
Jens Cajuste Napoli Aktiv 133 / 133 40% 2 02.09.2027 -
Juan Manuel Villalba Tigre Aktiv 115 / 119 40% 1 01.09.2027 Mehr Infos nötig
David Carmo Olympiacos Aktiv 153 / 139 40% 1 31.08.2027 -
Alessandro Bastoni Inter Aktiv 180 / 174 40% 1 31.08.2027 -
Douglas Luiz Juventus Aktiv 136 / 153 40% 1 21.08.2027 -
Kilian Fischer VfL Wolfsburg Aktiv 147 / 127 40% 1 20.08.2027 -
Edoardo Corvi Palermo Aktiv 125 / 141 40% 1 19.08.2027 -
Raoul Bellanova Atalanta Aktiv 149 / 150 40% 1 08.08.2027 -
Filip Stanković Lazio Aktiv 131 / 144 40% 1 02.08.2027 -
Victor Hernandez Santa Fe Aktiv 124 / 122 40% 1 02.08.2027 -
Álvaro Fernández Valencia Aktiv 133 / 137 40% 1 27.07.2027 -
Diego Mascardi Juventus Aktiv 122 / 137 40% 2 24.07.2027 -
Marc Cucurella Real Madrid Aktiv 161 / 158 40% 1 19.06.2027 -
Curtis Jones Inter Aktiv 166 / 152 40% 3 14.06.2027 -
Mathías de Ritis San Lorenzo Aktiv 126 / 120 58% 1 07.06.2027 -
Tobías Rubio Racing Club Aktiv 116 / 120 58% 1 03.06.2027 -
Eduardo Lozano Botafogo Aktiv 136 / 145 40% 4 01.06.2027 -
Luiz Henrique AS Roma Aktiv 142 / 143 68% 1 01.06.2027 Befürworten
Thiago Almada LOSC Lille Aktiv 145 / 146 69% 1 01.06.2027 Befürworten
Sindre Walle Egeli Udinese Aktiv 122 / 135 40% 1 01.06.2027 -
Manu Koné AS Roma Aktiv 168 / 155 40% 2 30.05.2027 -
Nuno Tavares Lazio Aktiv 140 / 137 40% 3 30.05.2027 -
Giacomo Raspadori Atalanta Aktiv 162 / 152 40% 3 27.05.2027 -
Arthur Atta Fiorentina Aktiv 145 / 136 40% 3 25.05.2027 -
Gonçalo Ramos AC Milan Aktiv 165 / 155 40% 2 11.05.2027 -
Nicolò Zaniolo Udinese Aktiv 132 / 148 40% 5 08.05.2027 -
Lewis Ferguson Bologna Aktiv 146 / 141 40% 1 03.05.2027 -
Enrico Delprato Parma Aktiv 140 / 144 40% 1 03.05.2027 -
Steven Bergwijn Al-Ittihad Aktiv 145 / 153 40% 2 26.04.2027 -
Mateus Mané Burnley Aktiv 133 / 132 40% 1 19.04.2027 -
Lucas Da Cunha Como Aktiv 139 / 151 40% 2 15.04.2027 -
Teun Koopmeiners Juventus Aktiv 135 / 146 40% 2 13.04.2027 -
Kobbie Mainoo Manchester United Aktiv 164 / 157 40% 2 13.04.2027 -
Benjamin White Arsenal Aktiv 160 / 149 40% 2 04.04.2027 -
Gianluca Mancini AS Roma Aktiv 164 / 157 40% 1 03.04.2027 -
Thierry Rendall Correia Venezia Aktiv 152 / 145 40% 1 30.03.2027 -
Amadou Onana Aston Villa Aktiv 142 / 162 40% 3 26.03.2027 -
Nordi Mukiele Sunderland Aktiv 152 / 151 40% 2 26.03.2027 -
Ryan Gravenberch Liverpool Aktiv 169 / 156 40% 2 22.03.2027 -
Noussair Mazraoui Manchester United Aktiv 157 / 154 40% 2 16.03.2027 -
Alex Scott Bournemouth Aktiv 150 / 154 40% 2 13.03.2027 -
Azor Matusiwa Ipswich Town Aktiv 141 / 136 40% 1 12.03.2027 -
Levi Colwill Chelsea Aktiv 150 / 160 40% 1 12.03.2027 -
Jurriën Timber Arsenal Aktiv 167 / 163 40% 1 10.03.2027 -
Dara O'Shea Ipswich Town Aktiv 131 / 142 40% 1 10.03.2027 -
Xaver Schlager Nottingham Forest Aktiv 162 / 147 40% 2 09.03.2027 -
James Garner Everton Aktiv 152 / 143 40% 1 09.03.2027 -
Quinten Timber Crystal Palace Aktiv 136 / 158 40% 1 07.03.2027 -
Mats Wieffer Brighton Aktiv 159 / 156 40% 2 06.03.2027 -
André Wolverhampton Aktiv 142 / 138 40% 1 06.03.2027 -
Olivier Boscagli Brighton Aktiv 136 / 149 40% 1 05.03.2027 -
Maxence Lacroix Chelsea Aktiv 161 / 151 40% 1 05.03.2027 -
Joško Gvardiol Manchester City Aktiv 171 / 171 40% 1 28.02.2027 -
Jacob Greaves Ipswich Town Aktiv 132 / 144 40% 2 25.02.2027 -
Óscar Mingueza Crystal Palace Aktiv 160 / 140 40% 3 24.02.2027 -
Lewis Hall Newcastle United Aktiv 158 / 160 40% 2 23.02.2027 -
Matheus Nunes Manchester City Aktiv 158 / 154 40% 2 20.02.2027 -
Gabriel Arsenal Aktiv 183 / 180 40% 1 14.02.2027 -
Jarrad Branthwaite Everton Aktiv 146 / 153 40% 2 06.02.2027 -
Aaron Hickey Brentford Aktiv 146 / 137 40% 2 04.02.2027 -
Moisés Caicedo Chelsea Aktiv 156 / 163 40% 2 04.02.2027 -
Miloš Kerkez Liverpool Aktiv 152 / 150 40% 1 03.02.2027 -
Rúben Dias Manchester City Aktiv 159 / 169 40% 1 02.02.2027 -
Tomoki Hayakawa Kashima Antlers Aktiv 130 / 128 40% 1 01.12.2026 -
Gianluca Scamacca Atalanta Aktiv 152 / 141 40% 1 30.11.2026 -
Giorgio Scalvini Atalanta Aktiv 145 / 142 40% 1 28.11.2026 -
Odilon Kossounou Atalanta Aktiv 135 / 148 40% 1 27.11.2026 -
Oumar Solet Udinese Aktiv 159 / 148 40% 1 27.11.2026 -
Franck Kessié Atalanta Aktiv 156 / 148 40% 1 23.11.2026 -
Manuel Locatelli Juventus Aktiv 140 / 157 40% 2 22.11.2026 -
Trevoh Chalobah Como Aktiv 153 / 163 40% 1 18.11.2026 -
Wilson Odobert Brighton Aktiv 135 / 133 40% 2 16.11.2026 -
Nahuel Molina AS Roma Aktiv 158 / 137 40% 2 16.11.2026 -
Kenneth Taylor Lazio Aktiv 134 / 148 40% 1 11.11.2026 -
Dodo Fiorentina Aktiv 137 / 139 40% 1 08.11.2026 -
Oscar Al-Taawoun Aktiv 153 / 134 40% 1 07.11.2026 -
Keisuke Osako Sanfrecce Hiroshima Aktiv 140 / 130 40% 2 06.11.2026 -
Carlos Augusto Inter Aktiv 163 / 153 40% 1 05.11.2026 -
Caleb Yirenkyi Coventry City Aktiv 144 / 136 40% 1 05.11.2026 -
Ferdi Kadıoğlu Brighton Aktiv 137 / 153 40% 3 04.11.2026 -
Bazoumana Touré Newcastle United Aktiv 135 / 132 40% 1 30.10.2026 -
Alex Meret Napoli Aktiv 158 / 156 40% 1 28.10.2026 -
Gianluca Prestianni Benfica Aktiv 130 / 141 40% 1 23.10.2026 -
Ibrahim Sangaré Nottingham Forest Aktiv 156 / 138 40% 1 22.10.2026 -
Nathan Collins Brentford Aktiv 158 / 145 40% 1 18.10.2026 -
Ryan Sessegnon Fulham Aktiv 139 / 151 40% 1 15.10.2026 -
Omar Alderete Sunderland Aktiv 152 / 158 40% 1 15.10.2026 -
Antoni Milambo Brentford Aktiv 133 / 135 40% 1 11.10.2026 -
Sergi Cardona KAA Gent Aktiv 158 / 137 40% 2 30.09.2026 -
Ritsu Doan Gamba Osaka Aktiv 137 / 141 40% 1 24.09.2026 -
Théo Hernández CSKA Moscow Aktiv 146 / 150 40% 1 13.09.2026 -
Givairo Read Feyenoord Aktiv 126 / 147 40% 2 12.08.2026 -
Kees Smit AZ Aktiv 139 / 143 40% 1 11.08.2026 -
Viktor Tsygankov Ajax Aktiv 157 / 148 40% 1 10.08.2026 -
Alexander Nübel Besiktas Aktiv 135 / 145 40% 2 09.08.2026 -